createdAt,value
2023-03-27T00:01:36.710Z,12.30
2023-03-27T00:04:05.580Z,12.30
2023-03-27T00:06:35.146Z,12.30
2023-03-27T00:09:04.826Z,12.30
2023-03-27T00:11:33.249Z,12.30
2023-03-27T00:14:01.959Z,12.20
2023-03-27T00:16:30.601Z,12.20
2023-03-27T00:18:58.959Z,12.20
2023-03-27T00:21:27.370Z,12.20
2023-03-27T00:23:56.947Z,12.30
2023-03-27T00:26:25.134Z,12.30
2023-03-27T00:28:54.773Z,12.30
2023-03-27T00:31:23.175Z,12.20
2023-03-27T00:33:51.743Z,12.20
2023-03-27T00:36:20.072Z,12.20
2023-03-27T00:38:48.313Z,12.20
2023-03-27T00:41:17.938Z,12.20
2023-03-27T00:43:46.525Z,12.10
2023-03-27T00:46:38.946Z,12.00
2023-03-27T00:49:10.955Z,12.00
2023-03-27T00:51:41.778Z,11.90
2023-03-27T00:54:10.906Z,12.00
2023-03-27T00:56:40.714Z,11.90
2023-03-27T00:59:12.613Z,11.80
2023-03-27T01:01:41.388Z,11.80
2023-03-27T01:04:10.902Z,11.90
2023-03-27T01:06:42.108Z,11.90
2023-03-27T01:09:11.241Z,11.90
2023-03-27T01:12:00.930Z,11.90
2023-03-27T01:14:35.714Z,12.00
2023-03-27T01:17:19.137Z,12.00
2023-03-27T01:20:15.680Z,12.00
2023-03-27T01:23:15.891Z,12.00
2023-03-27T01:26:38.699Z,11.90
2023-03-27T01:29:14.622Z,11.90
2023-03-27T01:32:01.996Z,11.90
2023-03-27T01:35:02.049Z,11.90
2023-03-27T01:37:51.671Z,11.90
2023-03-27T01:40:23.021Z,11.90
2023-03-27T01:42:56.111Z,11.80
2023-03-27T01:45:30.358Z,11.80
2023-03-27T01:48:04.141Z,11.70
2023-03-27T01:50:36.170Z,11.70
2023-03-27T01:53:11.562Z,11.70
2023-03-27T01:55:46.739Z,11.70
2023-03-27T01:58:19.396Z,11.60
2023-03-27T02:00:55.816Z,11.60
2023-03-27T02:03:28.697Z,11.50
2023-03-27T02:06:01.557Z,11.50
2023-03-27T02:08:36.254Z,11.40
2023-03-27T02:11:06.170Z,11.40
2023-03-27T02:13:39.092Z,11.40
2023-03-27T02:16:10.152Z,11.40
2023-03-27T02:18:42.002Z,11.40
2023-03-27T02:21:10.599Z,11.40
2023-03-27T02:23:39.678Z,11.30
2023-03-27T02:26:12.581Z,11.20
2023-03-27T02:29:17.906Z,11.20
2023-03-27T02:32:00.054Z,11.30
2023-03-27T02:34:58.893Z,11.40
2023-03-27T02:37:34.471Z,11.40
2023-03-27T02:40:14.015Z,11.40
2023-03-27T02:42:54.364Z,11.40
2023-03-27T02:45:27.145Z,11.40
2023-03-27T02:47:59.756Z,11.40
2023-03-27T02:50:33.256Z,11.40
2023-03-27T02:53:04.285Z,11.40
2023-03-27T02:55:36.836Z,11.40
2023-03-27T02:58:10.251Z,11.40
2023-03-27T03:00:43.870Z,11.50
2023-03-27T03:03:18.819Z,11.50
2023-03-27T03:05:48.209Z,11.40
2023-03-27T03:08:16.518Z,11.40
2023-03-27T03:10:46.169Z,11.30
2023-03-27T03:13:16.174Z,11.20
2023-03-27T03:15:46.077Z,11.20
2023-03-27T03:18:14.686Z,11.10
2023-03-27T03:20:42.921Z,11.10
2023-03-27T03:23:11.200Z,11.10
2023-03-27T03:25:39.387Z,11.10
2023-03-27T03:28:08.290Z,11.00
2023-03-27T03:30:39.053Z,11.00
2023-03-27T03:33:07.291Z,11.00
2023-03-27T03:35:35.944Z,11.00
2023-03-27T03:38:04.431Z,10.90
2023-03-27T03:40:32.597Z,10.90
2023-03-27T03:43:00.755Z,10.90
2023-03-27T03:45:28.931Z,10.90
2023-03-27T03:47:58.588Z,10.90
2023-03-27T03:50:26.800Z,10.90
2023-03-27T03:52:54.959Z,10.90
2023-03-27T03:55:25.934Z,11.00
2023-03-27T03:57:54.287Z,11.00
2023-03-27T04:00:23.011Z,10.90
2023-03-27T04:02:53.464Z,10.90
2023-03-27T04:05:23.570Z,10.90
2023-03-27T04:07:51.730Z,10.90
2023-03-27T04:10:20.129Z,10.90
2023-03-27T04:12:48.858Z,10.90
2023-03-27T04:15:17.340Z,10.90
2023-03-27T04:17:46.089Z,10.90
2023-03-27T04:20:14.941Z,10.90
2023-03-27T04:22:46.379Z,10.80
2023-03-27T04:25:17.230Z,10.80
2023-03-27T04:27:46.033Z,10.80
2023-03-27T04:30:15.873Z,10.80
2023-03-27T04:32:44.112Z,10.80
2023-03-27T04:35:12.584Z,10.80
2023-03-27T04:37:42.090Z,10.80
2023-03-27T04:40:14.215Z,10.80
2023-03-27T04:42:45.102Z,10.80
2023-03-27T04:45:14.751Z,10.80
2023-03-27T04:47:43.117Z,10.80
2023-03-27T04:50:13.003Z,10.70
2023-03-27T04:52:41.193Z,10.70
2023-03-27T04:55:12.277Z,10.70
2023-03-27T04:57:41.825Z,10.70
2023-03-27T05:00:16.376Z,10.70
2023-03-27T05:02:44.905Z,10.70
2023-03-27T05:05:14.008Z,10.70
2023-03-27T05:07:46.321Z,10.70
2023-03-27T05:10:17.339Z,10.70
2023-03-27T05:12:51.446Z,10.70
2023-03-27T05:15:21.119Z,10.70
2023-03-27T05:17:53.354Z,10.70
2023-03-27T05:20:22.363Z,10.80
2023-03-27T05:22:50.824Z,10.80
2023-03-27T05:25:20.443Z,10.80
2023-03-27T05:27:49.775Z,10.80
2023-03-27T05:30:20.973Z,10.90
2023-03-27T05:32:52.111Z,10.90
2023-03-27T05:35:22.532Z,10.90
2023-03-27T05:37:52.662Z,10.90
2023-03-27T05:40:26.112Z,10.90
2023-03-27T05:42:55.845Z,10.90
2023-03-27T05:45:25.231Z,10.90
2023-03-27T05:47:55.184Z,10.90
2023-03-27T05:50:25.416Z,10.90
2023-03-27T05:52:57.028Z,11.00
2023-03-27T05:55:28.004Z,11.00
2023-03-27T05:57:56.482Z,11.10
2023-03-27T06:00:27.394Z,11.20
2023-03-27T06:02:56.540Z,11.20
2023-03-27T06:05:25.520Z,11.30
2023-03-27T06:07:53.982Z,11.30
2023-03-27T06:10:22.328Z,11.30
2023-03-27T06:13:00.310Z,11.40
2023-03-27T06:15:28.973Z,11.40
2023-03-27T06:17:57.344Z,11.40
2023-03-27T06:20:26.260Z,11.50
2023-03-27T06:22:56.326Z,11.50
2023-03-27T06:25:25.975Z,11.60
2023-03-27T06:27:55.908Z,11.60
2023-03-27T06:30:25.876Z,11.70
2023-03-27T06:32:57.688Z,11.70
2023-03-27T06:35:28.991Z,11.80
2023-03-27T06:37:59.053Z,11.80
2023-03-27T06:40:29.199Z,11.80
2023-03-27T06:43:00.972Z,11.80
2023-03-27T06:45:32.316Z,11.90
2023-03-27T06:48:15.453Z,11.90
2023-03-27T06:50:50.522Z,12.00
2023-03-27T06:53:27.329Z,12.10
2023-03-27T06:55:57.374Z,12.10
2023-03-27T06:58:27.564Z,12.20
2023-03-27T07:00:56.119Z,12.20
2023-03-27T07:03:25.823Z,12.30
2023-03-27T07:05:54.239Z,12.30
2023-03-27T07:08:25.262Z,12.40
2023-03-27T07:11:10.005Z,12.40
2023-03-27T07:13:42.517Z,12.50
2023-03-27T07:16:12.449Z,12.50
2023-03-27T07:18:41.831Z,12.60
2023-03-27T07:21:10.495Z,12.60
2023-03-27T07:23:38.628Z,12.70
2023-03-27T07:26:07.568Z,12.70
2023-03-27T07:28:38.350Z,12.70
2023-03-27T07:31:25.872Z,12.70
2023-03-27T07:34:00.249Z,12.70
2023-03-27T07:36:28.836Z,12.80
2023-03-27T07:38:56.970Z,12.80
2023-03-27T07:41:25.242Z,12.90
2023-03-27T07:43:53.496Z,13.00
2023-03-27T07:46:24.376Z,13.10
2023-03-27T07:48:53.232Z,13.10
2023-03-27T07:51:21.503Z,13.20
2023-03-27T07:53:54.067Z,13.30
2023-03-27T07:56:23.372Z,13.30
2023-03-27T07:58:53.222Z,13.40
2023-03-27T08:01:22.787Z,13.40
2023-03-27T08:03:52.158Z,13.50
2023-03-27T08:06:20.864Z,13.60
2023-03-27T08:08:50.942Z,13.60
2023-03-27T08:11:30.356Z,13.70
2023-03-27T08:13:59.609Z,13.70
2023-03-27T08:16:30.189Z,13.80
2023-03-27T08:18:58.781Z,13.80
2023-03-27T08:21:26.966Z,13.90
2023-03-27T08:23:57.331Z,13.90
2023-03-27T08:26:26.542Z,14.00
2023-03-27T08:28:56.206Z,14.00
2023-03-27T08:31:25.750Z,14.00
2023-03-27T08:33:55.487Z,14.10
2023-03-27T08:36:24.049Z,14.20
2023-03-27T08:38:55.146Z,14.20
2023-03-27T08:41:30.725Z,14.20
2023-03-27T08:44:03.563Z,14.20
2023-03-27T08:46:38.131Z,14.30
2023-03-27T08:49:12.718Z,14.30
2023-03-27T08:51:47.102Z,14.30
2023-03-27T08:54:18.831Z,14.30
2023-03-27T08:56:48.245Z,14.40
2023-03-27T08:59:18.914Z,14.50
2023-03-27T09:01:55.770Z,14.50
2023-03-27T09:04:37.367Z,14.60
2023-03-27T09:07:11.458Z,14.60
2023-03-27T09:09:55.844Z,14.60
2023-03-27T09:12:41.554Z,14.70
2023-03-27T09:15:13.001Z,14.70
2023-03-27T09:17:45.281Z,14.70
2023-03-27T09:20:20.452Z,14.70
2023-03-27T09:22:53.682Z,14.70
2023-03-27T09:25:27.486Z,14.70
2023-03-27T09:27:56.179Z,14.70
2023-03-27T09:30:28.288Z,14.70
2023-03-27T09:33:00.789Z,14.70
2023-03-27T09:35:31.069Z,14.80
2023-03-27T09:38:03.975Z,14.80
2023-03-27T09:40:41.232Z,14.80
2023-03-27T09:43:16.214Z,14.80
2023-03-27T09:45:46.511Z,14.80
2023-03-27T09:48:21.866Z,14.80
2023-03-27T09:50:51.348Z,14.90
2023-03-27T09:53:23.068Z,14.90
2023-03-27T09:55:54.515Z,14.90
2023-03-27T09:58:32.028Z,15.00
2023-03-27T10:01:15.917Z,15.00
2023-03-27T10:03:51.360Z,15.00
2023-03-27T10:06:29.557Z,15.00
2023-03-27T10:09:00.980Z,15.10
2023-03-27T10:11:33.829Z,15.10
2023-03-27T10:14:03.321Z,15.10
2023-03-27T10:16:40.125Z,15.10
2023-03-27T10:19:22.085Z,15.10
2023-03-27T10:21:52.031Z,15.20
2023-03-27T10:24:30.732Z,15.20
2023-03-27T10:27:01.459Z,15.20
2023-03-27T10:29:32.570Z,15.30
2023-03-27T10:32:04.146Z,15.30
2023-03-27T10:34:36.691Z,15.30
2023-03-27T10:37:28.084Z,15.40
2023-03-27T10:39:58.539Z,15.40
2023-03-27T10:42:28.883Z,15.50
2023-03-27T10:44:57.648Z,15.50
2023-03-27T10:47:28.897Z,15.60
2023-03-27T10:50:04.271Z,15.60
2023-03-27T10:52:42.067Z,15.60
2023-03-27T10:55:22.837Z,15.60
2023-03-27T10:57:54.682Z,15.60
2023-03-27T11:00:32.864Z,15.60
2023-03-27T11:03:06.766Z,15.70
2023-03-27T11:05:38.953Z,15.70
2023-03-27T11:08:14.378Z,15.70
2023-03-27T11:10:45.461Z,15.70
2023-03-27T11:13:19.333Z,15.80
2023-03-27T11:15:54.219Z,15.80
2023-03-27T11:18:25.749Z,15.80
2023-03-27T11:21:00.340Z,15.80
2023-03-27T11:23:37.036Z,15.80
2023-03-27T11:26:07.332Z,15.90
2023-03-27T11:28:42.967Z,15.90
2023-03-27T11:31:17.731Z,15.90
2023-03-27T11:33:51.453Z,15.90
2023-03-27T11:36:35.851Z,15.90
2023-03-27T11:39:19.068Z,16.00
2023-03-27T11:41:54.386Z,16.00
2023-03-27T11:44:23.267Z,16.00
2023-03-27T11:47:19.648Z,16.00
2023-03-27T11:50:04.206Z,16.10
2023-03-27T11:52:40.976Z,16.10
2023-03-27T11:55:21.662Z,16.10
2023-03-27T11:58:03.254Z,16.10
2023-03-27T12:00:36.367Z,16.20
2023-03-27T12:03:41.014Z,16.20
2023-03-27T12:06:15.626Z,16.20
2023-03-27T12:09:01.914Z,16.10
2023-03-27T12:11:38.110Z,16.10
2023-03-27T12:14:23.973Z,16.20
2023-03-27T12:17:09.888Z,16.10
2023-03-27T12:20:19.084Z,16.10
2023-03-27T12:22:57.326Z,16.20
2023-03-27T12:25:48.904Z,16.20
2023-03-27T12:28:30.901Z,16.30
2023-03-27T12:31:09.632Z,16.30
2023-03-27T12:33:47.635Z,16.40
2023-03-27T12:36:19.624Z,16.40
2023-03-27T12:38:48.994Z,16.40
2023-03-27T12:41:25.602Z,16.40
2023-03-27T12:43:59.876Z,16.40
2023-03-27T12:46:37.435Z,16.40
2023-03-27T12:49:48.412Z,16.50
2023-03-27T12:52:18.767Z,16.50
2023-03-27T12:55:31.159Z,16.50
2023-03-27T12:58:00.652Z,16.50
2023-03-27T13:00:30.134Z,16.50
2023-03-27T13:03:31.748Z,16.50
2023-03-27T13:06:14.344Z,16.50
2023-03-27T13:08:59.639Z,16.50
2023-03-27T13:11:41.527Z,16.60
2023-03-27T13:14:43.591Z,16.60
2023-03-27T13:17:34.588Z,16.70
2023-03-27T13:20:16.588Z,16.70
2023-03-27T13:23:01.239Z,16.70
2023-03-27T13:25:42.619Z,16.70
2023-03-27T13:28:32.743Z,16.70
2023-03-27T13:31:02.107Z,16.70
2023-03-27T13:33:41.740Z,16.70
2023-03-27T13:36:17.470Z,16.80
2023-03-27T13:39:21.224Z,16.80
2023-03-27T13:42:01.817Z,16.80
2023-03-27T13:44:41.452Z,16.80
2023-03-27T13:47:28.338Z,16.80
2023-03-27T13:50:17.800Z,16.80
2023-03-27T13:53:05.680Z,16.80
2023-03-27T13:55:50.129Z,16.90
2023-03-27T13:58:44.066Z,16.90
2023-03-27T14:01:28.446Z,16.90
2023-03-27T14:04:11.329Z,16.90
2023-03-27T14:07:17.228Z,16.90
2023-03-27T14:09:58.129Z,16.90
2023-03-27T14:12:38.082Z,16.90
2023-03-27T14:15:34.016Z,16.90
2023-03-27T14:18:16.865Z,16.90
2023-03-27T14:20:47.807Z,16.90
2023-03-27T14:23:23.425Z,16.90
2023-03-27T14:26:01.909Z,16.90
2023-03-27T14:28:34.972Z,16.90
2023-03-27T14:31:08.526Z,16.90
2023-03-27T14:33:39.185Z,16.90
2023-03-27T14:36:08.229Z,16.90
2023-03-27T14:38:38.315Z,17.00
2023-03-27T14:41:08.304Z,17.00
2023-03-27T14:43:36.517Z,16.90
2023-03-27T14:46:08.009Z,16.90
2023-03-27T14:48:38.080Z,16.90
2023-03-27T14:51:10.150Z,16.90
2023-03-27T14:53:44.265Z,17.00
2023-03-27T14:56:24.632Z,17.00
2023-03-27T14:58:55.534Z,17.00
2023-03-27T15:01:26.375Z,17.00
2023-03-27T15:03:54.984Z,16.90
2023-03-27T15:06:26.305Z,16.90
2023-03-27T15:08:58.998Z,16.90
2023-03-27T15:11:37.431Z,16.90
2023-03-27T15:14:05.812Z,16.90
2023-03-27T15:16:36.796Z,16.90
2023-03-27T15:19:12.348Z,16.90
2023-03-27T15:21:49.374Z,16.90
2023-03-27T15:24:26.080Z,16.80
2023-03-27T15:26:56.362Z,16.80
2023-03-27T15:29:32.316Z,16.80
2023-03-27T15:32:08.826Z,16.80
2023-03-27T15:34:46.351Z,16.80
2023-03-27T15:37:19.872Z,16.80
2023-03-27T15:40:02.324Z,16.80
2023-03-27T15:42:45.958Z,16.80
2023-03-27T15:45:16.829Z,16.70
2023-03-27T15:47:59.858Z,16.70
2023-03-27T15:50:28.288Z,16.60
2023-03-27T15:52:58.845Z,16.60
2023-03-27T15:55:38.349Z,16.50
2023-03-27T15:58:17.298Z,16.50
2023-03-27T16:00:48.209Z,16.50
2023-03-27T16:03:23.589Z,16.50
2023-03-27T16:05:53.812Z,16.50
2023-03-27T16:08:31.699Z,16.40
2023-03-27T16:11:00.585Z,16.40
2023-03-27T16:13:34.523Z,16.40
2023-03-27T16:16:04.967Z,16.40
2023-03-27T16:18:36.727Z,16.30
2023-03-27T16:21:10.042Z,16.30
2023-03-27T16:23:38.673Z,16.20
2023-03-27T16:26:09.798Z,16.10
2023-03-27T16:28:37.997Z,16.00
2023-03-27T16:31:14.097Z,16.00
2023-03-27T16:33:45.255Z,15.90
2023-03-27T16:36:15.342Z,15.80
2023-03-27T16:38:44.181Z,15.80
2023-03-27T16:41:14.677Z,15.80
2023-03-27T16:43:43.194Z,15.80
2023-03-27T16:46:19.687Z,15.80
2023-03-27T16:48:49.500Z,15.70
2023-03-27T16:51:17.820Z,15.70
2023-03-27T16:53:45.941Z,15.70
2023-03-27T16:56:14.340Z,15.70
2023-03-27T16:58:42.958Z,15.60
2023-03-27T17:01:11.885Z,15.60
2023-03-27T17:03:40.115Z,15.50
2023-03-27T17:06:11.559Z,15.50
2023-03-27T17:08:40.119Z,15.50
2023-03-27T17:11:10.053Z,15.50
2023-03-27T17:13:39.717Z,15.50
2023-03-27T17:16:10.081Z,15.40
2023-03-27T17:18:38.424Z,15.30
2023-03-27T17:21:07.231Z,15.30
2023-03-27T17:23:36.925Z,15.20
2023-03-27T17:26:06.433Z,15.20
2023-03-27T17:28:35.371Z,15.20
2023-03-27T17:31:05.523Z,15.10
2023-03-27T17:33:34.129Z,15.00
2023-03-27T17:36:07.848Z,14.90
2023-03-27T17:38:38.030Z,14.90
2023-03-27T17:41:07.340Z,14.80
2023-03-27T17:43:35.627Z,14.70
2023-03-27T17:46:03.918Z,14.70
2023-03-27T17:48:33.995Z,14.50
2023-03-27T17:51:08.664Z,14.50
2023-03-27T17:53:39.790Z,14.40
2023-03-27T17:56:09.853Z,14.40
2023-03-27T17:58:38.102Z,14.30
2023-03-27T18:01:16.924Z,14.30
2023-03-27T18:03:46.134Z,14.30
2023-03-27T18:06:14.984Z,14.20
2023-03-27T18:08:45.230Z,14.20
2023-03-27T18:11:15.557Z,14.20
2023-03-27T18:13:45.022Z,14.20
2023-03-27T18:16:13.386Z,14.10
2023-03-27T18:18:41.942Z,14.00
2023-03-27T18:21:10.067Z,14.00
2023-03-27T18:23:46.446Z,14.00
2023-03-27T18:26:17.766Z,13.90
2023-03-27T18:28:45.942Z,14.00
2023-03-27T18:31:15.360Z,13.90
2023-03-27T18:33:43.660Z,13.90
2023-03-27T18:36:12.329Z,13.90
2023-03-27T18:38:42.042Z,13.80
2023-03-27T18:41:11.059Z,13.60
2023-03-27T18:43:40.943Z,13.50
2023-03-27T18:46:10.762Z,13.50
2023-03-27T18:48:39.097Z,13.50
2023-03-27T18:51:07.900Z,13.40
2023-03-27T18:53:36.503Z,13.40
2023-03-27T18:56:05.288Z,13.40
2023-03-27T18:58:33.928Z,13.40
2023-03-27T19:01:04.142Z,13.30
2023-03-27T19:03:35.137Z,13.30
2023-03-27T19:06:05.467Z,13.30
2023-03-27T19:08:37.440Z,13.20
2023-03-27T19:11:06.157Z,13.10
2023-03-27T19:13:34.436Z,13.00
2023-03-27T19:16:14.782Z,12.90
2023-03-27T19:18:43.773Z,12.70
2023-03-27T19:21:11.984Z,12.70
2023-03-27T19:23:40.222Z,12.70
2023-03-27T19:26:09.709Z,12.50
2023-03-27T19:28:40.314Z,12.50
2023-03-27T19:31:12.190Z,12.50
2023-03-27T19:33:41.136Z,12.40
2023-03-27T19:36:10.522Z,12.40
2023-03-27T19:38:38.853Z,12.30
2023-03-27T19:41:10.463Z,12.30
2023-03-27T19:43:38.841Z,12.30
2023-03-27T19:46:15.640Z,12.30
2023-03-27T19:48:47.482Z,12.30
2023-03-27T19:51:15.980Z,12.30
2023-03-27T19:53:44.290Z,12.20
2023-03-27T19:56:12.676Z,12.20
2023-03-27T19:58:40.843Z,12.20
2023-03-27T20:01:09.151Z,12.20
2023-03-27T20:03:38.605Z,12.20
2023-03-27T20:06:12.951Z,12.20
2023-03-27T20:08:42.796Z,12.20
2023-03-27T20:11:11.067Z,12.30
2023-03-27T20:13:53.023Z,12.20
2023-03-27T20:16:26.162Z,12.20
2023-03-27T20:19:03.262Z,12.20
2023-03-27T20:21:35.107Z,12.20
2023-03-27T20:24:05.843Z,12.20
2023-03-27T20:26:39.219Z,12.20
2023-03-27T20:29:07.870Z,12.10
2023-03-27T20:31:36.410Z,12.10
2023-03-27T20:34:06.424Z,12.10
2023-03-27T20:36:38.847Z,12.00
2023-03-27T20:39:08.950Z,12.00
2023-03-27T20:41:38.965Z,12.00
2023-03-27T20:44:15.779Z,11.90
2023-03-27T20:46:47.524Z,11.90
2023-03-27T20:49:37.729Z,11.90
2023-03-27T20:52:12.009Z,11.80
2023-03-27T20:54:40.716Z,11.80
2023-03-27T20:57:09.460Z,11.70
2023-03-27T20:59:37.842Z,11.70
2023-03-27T21:02:06.331Z,11.60
2023-03-27T21:04:34.771Z,11.50
2023-03-27T21:07:02.994Z,11.50
2023-03-27T21:09:32.800Z,11.40
2023-03-27T21:12:01.455Z,11.40
2023-03-27T21:14:32.262Z,11.30
2023-03-27T21:17:00.618Z,11.20
2023-03-27T21:19:29.021Z,11.10
2023-03-27T21:21:57.147Z,11.10
2023-03-27T21:24:25.361Z,11.10
2023-03-27T21:26:55.203Z,11.00
2023-03-27T21:29:25.162Z,10.90
2023-03-27T21:31:53.817Z,10.90
2023-03-27T21:34:22.364Z,10.70
2023-03-27T21:36:50.623Z,10.60
2023-03-27T21:39:19.005Z,10.70
2023-03-27T21:41:47.362Z,10.70
2023-03-27T21:44:16.969Z,10.60
2023-03-27T21:46:45.380Z,10.60
2023-03-27T21:49:13.549Z,10.60
2023-03-27T21:51:41.762Z,10.60
2023-03-27T21:54:09.995Z,10.50
2023-03-27T21:56:38.225Z,10.50
2023-03-27T21:59:06.459Z,10.40
2023-03-27T22:01:36.138Z,10.30
2023-03-27T22:04:04.371Z,10.20
2023-03-27T22:06:32.654Z,10.20
2023-03-27T22:09:01.559Z,10.20
2023-03-27T22:11:29.867Z,10.20
2023-03-27T22:13:59.205Z,10.20
2023-03-27T22:16:27.555Z,10.10
2023-03-27T22:18:57.513Z,10.10
2023-03-27T22:21:27.509Z,10.20
2023-03-27T22:23:56.876Z,10.10
2023-03-27T22:26:27.841Z,10.00
2023-03-27T22:28:56.543Z,10.00
2023-03-27T22:31:25.671Z,10.00
2023-03-27T22:33:54.230Z,10.00
2023-03-27T22:36:24.146Z,10.00
2023-03-27T22:38:52.346Z,9.90
2023-03-27T22:41:20.662Z,9.90
2023-03-27T22:43:49.881Z,9.90
2023-03-27T22:46:21.315Z,10.00
2023-03-27T22:48:54.064Z,10.00
2023-03-27T22:51:24.164Z,10.00
2023-03-27T22:53:52.429Z,10.00
2023-03-27T22:56:20.738Z,10.00
2023-03-27T22:58:49.024Z,9.90
2023-03-27T23:01:17.663Z,9.90
2023-03-27T23:03:46.012Z,9.90
2023-03-27T23:06:18.973Z,9.90
2023-03-27T23:08:49.057Z,9.90
2023-03-27T23:11:18.112Z,9.90
2023-03-27T23:13:46.526Z,9.90
2023-03-27T23:16:14.846Z,9.90
2023-03-27T23:18:43.351Z,9.90
2023-03-27T23:21:16.699Z,9.90
2023-03-27T23:23:46.169Z,9.80
2023-03-27T23:26:15.976Z,9.80
2023-03-27T23:28:44.184Z,9.80
2023-03-27T23:31:15.866Z,9.80
2023-03-27T23:33:46.222Z,9.60
2023-03-27T23:36:16.558Z,9.50
2023-03-27T23:38:45.333Z,9.40
2023-03-27T23:41:16.101Z,9.50
2023-03-27T23:43:44.438Z,9.50
2023-03-27T23:46:12.953Z,9.50
2023-03-27T23:48:43.016Z,9.50
2023-03-27T23:51:12.562Z,9.40
2023-03-27T23:53:41.301Z,9.40
2023-03-27T23:56:10.809Z,9.40
2023-03-27T23:58:40.468Z,9.30
